createdAt,value
2022-12-17T00:00:34.932Z,102130.59
2022-12-17T00:03:20.180Z,102089.66
2022-12-17T00:06:05.475Z,102139.59
2022-12-17T00:08:50.909Z,102129.25
2022-12-17T00:11:37.354Z,102075.72
2022-12-17T00:14:22.685Z,102142.41
2022-12-17T00:17:07.545Z,102154.75
2022-12-17T00:19:52.495Z,102114.50
2022-12-17T00:22:41.871Z,102129.47
2022-12-17T00:25:27.157Z,102128.56
2022-12-17T00:28:12.247Z,102168.00
2022-12-17T00:30:57.390Z,102167.13
2022-12-17T00:33:42.365Z,102163.56
2022-12-17T00:36:27.786Z,102114.50
2022-12-17T00:39:12.798Z,102166.09
2022-12-17T00:41:57.986Z,102107.59
2022-12-17T00:44:42.765Z,102176.81
2022-12-17T00:47:41.374Z,102141.84
2022-12-17T00:50:27.300Z,102181.31
2022-12-17T00:53:12.762Z,102158.63
2022-12-17T00:55:58.778Z,102161.28
2022-12-17T00:58:43.734Z,102187.63
2022-12-17T01:01:28.961Z,102184.16
2022-12-17T01:04:14.223Z,102196.53
2022-12-17T01:06:59.281Z,102171.97
2022-12-17T01:09:44.186Z,102202.75
2022-12-17T01:12:29.360Z,102189.63
2022-12-17T01:15:14.601Z,102213.34
2022-12-17T01:17:59.838Z,102160.69
2022-12-17T01:20:45.256Z,102219.41
2022-12-17T01:23:30.096Z,102196.63
2022-12-17T01:26:30.587Z,102229.94
2022-12-17T01:29:17.130Z,102215.88
2022-12-17T01:32:02.122Z,102186.19
2022-12-17T01:34:47.584Z,102230.00
2022-12-17T01:37:32.408Z,102234.44
2022-12-17T01:40:17.244Z,102181.84
2022-12-17T01:43:04.670Z,102188.84
2022-12-17T01:45:57.780Z,102237.88
2022-12-17T01:48:49.692Z,102124.00
2022-12-17T01:51:36.372Z,102223.88
2022-12-17T01:54:21.745Z,102206.31
2022-12-17T01:57:07.142Z,102198.38
2022-12-17T02:00:21.178Z,102242.25
2022-12-17T02:03:06.459Z,102205.47
2022-12-17T02:06:13.847Z,102201.13
2022-12-17T02:09:11.198Z,102237.97
2022-12-17T02:12:21.074Z,102251.13
2022-12-17T02:15:21.751Z,102241.44
2022-12-17T02:18:12.253Z,102237.88
2022-12-17T02:21:05.205Z,102223.00
2022-12-17T02:24:13.308Z,102215.16
2022-12-17T02:27:02.855Z,102228.31
2022-12-17T02:29:52.806Z,102238.88
2022-12-17T02:32:38.873Z,102202.13
2022-12-17T02:35:32.569Z,102234.56
2022-12-17T02:38:17.704Z,102234.56
2022-12-17T02:41:05.521Z,102230.22
2022-12-17T02:43:52.662Z,102190.78
2022-12-17T02:46:39.720Z,102062.88
2022-12-17T02:49:24.582Z,102220.63
2022-12-17T02:52:10.030Z,102249.56
2022-12-17T02:54:54.953Z,102258.41
2022-12-17T02:57:43.633Z,102253.09
2022-12-17T03:00:29.539Z,102232.94
2022-12-17T03:03:14.442Z,102219.78
2022-12-17T03:05:59.662Z,102238.19
2022-12-17T03:08:44.545Z,102224.13
2022-12-17T03:11:29.455Z,102246.94
2022-12-17T03:14:14.365Z,102247.00
2022-12-17T03:16:59.607Z,102206.72
2022-12-17T03:19:44.943Z,102207.56
2022-12-17T03:22:29.691Z,102196.19
2022-12-17T03:25:14.744Z,102246.16
2022-12-17T03:27:59.711Z,102254.06
2022-12-17T03:30:48.882Z,102205.88
2022-12-17T03:33:35.240Z,102250.59
2022-12-17T03:36:20.558Z,102268.13
2022-12-17T03:39:05.487Z,102266.38
2022-12-17T03:41:50.368Z,102227.81
2022-12-17T03:44:35.501Z,102225.13
2022-12-17T03:47:20.344Z,102274.25
2022-12-17T03:50:05.163Z,102276.03
2022-12-17T03:52:50.215Z,102216.34
2022-12-17T03:55:35.092Z,102281.28
2022-12-17T03:58:20.162Z,102283.91
2022-12-17T04:01:05.176Z,102284.78
2022-12-17T04:03:50.525Z,102283.03
2022-12-17T04:06:35.813Z,102277.75
2022-12-17T04:09:20.871Z,102288.28
2022-12-17T04:12:05.811Z,102252.34
2022-12-17T04:14:50.761Z,102289.19
2022-12-17T04:17:35.776Z,102293.56
2022-12-17T04:20:37.960Z,102287.47
2022-12-17T04:23:23.171Z,102238.34
2022-12-17T04:26:08.106Z,102290.97
2022-12-17T04:28:53.093Z,102286.59
2022-12-17T04:31:38.376Z,102283.94
2022-12-17T04:34:23.389Z,102291.84
2022-12-17T04:37:08.369Z,102247.97
2022-12-17T04:39:53.135Z,102231.31
2022-12-17T04:42:38.049Z,102285.72
2022-12-17T04:45:23.668Z,102230.41
2022-12-17T04:48:19.142Z,102278.69
2022-12-17T04:51:03.994Z,102291.00
2022-12-17T04:53:48.838Z,102280.47
2022-12-17T04:56:33.778Z,102250.59
2022-12-17T04:59:18.884Z,102298.88
2022-12-17T05:02:04.028Z,102223.41
2022-12-17T05:04:49.131Z,102283.03
2022-12-17T05:07:34.447Z,102248.81
2022-12-17T05:10:19.385Z,102294.47
2022-12-17T05:13:04.217Z,102240.94
2022-12-17T05:15:53.156Z,102299.72
2022-12-17T05:18:38.380Z,102320.78
2022-12-17T05:21:23.208Z,102322.56
2022-12-17T05:24:08.115Z,102321.66
2022-12-17T05:26:53.352Z,102253.19
2022-12-17T05:29:39.398Z,102325.19
2022-12-17T05:32:24.330Z,102319.88
2022-12-17T05:35:09.828Z,102338.34
2022-12-17T05:37:54.553Z,102284.75
2022-12-17T05:40:41.307Z,102321.66
2022-12-17T05:43:30.793Z,102327.81
2022-12-17T05:46:18.809Z,102336.59
2022-12-17T05:49:03.917Z,102312.00
2022-12-17T05:51:49.042Z,102338.31
2022-12-17T05:54:34.057Z,102341.84
2022-12-17T05:57:19.170Z,102335.69
2022-12-17T06:00:04.442Z,102327.78
2022-12-17T06:02:49.390Z,102337.44
2022-12-17T06:05:34.606Z,102337.44
2022-12-17T06:08:24.620Z,102333.03
2022-12-17T06:11:09.925Z,102309.31
2022-12-17T06:13:54.956Z,102281.22
2022-12-17T06:16:39.976Z,102342.72
2022-12-17T06:19:25.516Z,102330.41
2022-12-17T06:22:10.344Z,102311.06
2022-12-17T06:24:55.243Z,102362.88
2022-12-17T06:27:40.237Z,102364.59
2022-12-17T06:30:25.729Z,102375.09
2022-12-17T06:33:10.789Z,102296.00
2022-12-17T06:35:55.719Z,102375.97
2022-12-17T06:38:40.626Z,102385.56
2022-12-17T06:41:25.449Z,102306.50
2022-12-17T06:44:10.315Z,102380.28
2022-12-17T06:46:55.343Z,102344.25
2022-12-17T06:49:41.307Z,102378.53
2022-12-17T06:52:26.152Z,102331.94
2022-12-17T06:55:11.373Z,102350.47
2022-12-17T06:57:56.346Z,102369.81
2022-12-17T07:00:42.217Z,102305.66
2022-12-17T07:03:30.558Z,102383.00
2022-12-17T07:06:19.292Z,102386.53
2022-12-17T07:09:05.180Z,102332.97
2022-12-17T07:11:50.013Z,102365.50
2022-12-17T07:14:35.295Z,102344.34
2022-12-17T07:17:20.222Z,102338.25
2022-12-17T07:20:05.358Z,102405.03
2022-12-17T07:22:50.528Z,102409.44
2022-12-17T07:25:35.323Z,102371.63
2022-12-17T07:28:20.241Z,102412.06
2022-12-17T07:31:18.962Z,102393.56
2022-12-17T07:34:04.482Z,102396.25
2022-12-17T07:36:52.114Z,102376.88
2022-12-17T07:39:37.504Z,102434.00
2022-12-17T07:42:22.854Z,102360.13
2022-12-17T07:45:07.770Z,102354.84
2022-12-17T07:47:52.995Z,102361.94
2022-12-17T07:50:38.054Z,102440.13
2022-12-17T07:53:24.052Z,102413.75
2022-12-17T07:56:09.961Z,102416.41
2022-12-17T07:58:55.202Z,102453.31
2022-12-17T08:01:40.357Z,102452.47
2022-12-17T08:04:26.066Z,102461.28
2022-12-17T08:07:14.023Z,102360.06
2022-12-17T08:09:59.901Z,102466.53
2022-12-17T08:12:45.058Z,102270.53
2022-12-17T08:15:30.416Z,102471.84
2022-12-17T08:18:26.426Z,102476.22
2022-12-17T08:21:12.805Z,102448.97
2022-12-17T08:23:58.211Z,102443.72
2022-12-17T08:26:47.792Z,102470.09
2022-12-17T08:29:33.649Z,102485.94
2022-12-17T08:32:18.629Z,102478.00
2022-12-17T08:35:03.832Z,102497.38
2022-12-17T08:37:49.284Z,102491.22
2022-12-17T08:40:34.607Z,102485.94
2022-12-17T08:43:19.718Z,102469.19
2022-12-17T08:46:06.717Z,102451.53
2022-12-17T08:48:52.018Z,102494.09
2022-12-17T08:51:37.399Z,102452.91
2022-12-17T08:54:22.929Z,102515.38
2022-12-17T08:57:07.668Z,102512.91
2022-12-17T08:59:52.486Z,102457.88
2022-12-17T09:02:37.405Z,102473.06
2022-12-17T09:05:23.367Z,102504.78
2022-12-17T09:08:08.423Z,102520.56
2022-12-17T09:10:53.381Z,102526.72
2022-12-17T09:13:38.956Z,102508.75
2022-12-17T09:16:24.490Z,102466.00
2022-12-17T09:19:09.753Z,102511.31
2022-12-17T09:21:55.525Z,102428.34
2022-12-17T09:24:40.443Z,102521.59
2022-12-17T09:27:25.926Z,102529.03
2022-12-17T09:30:10.798Z,102497.25
2022-12-17T09:32:55.939Z,102454.09
2022-12-17T09:35:41.312Z,102521.88
2022-12-17T09:38:30.171Z,102487.41
2022-12-17T09:41:23.113Z,102511.22
2022-12-17T09:44:26.902Z,102481.38
2022-12-17T09:47:25.060Z,102393.31
2022-12-17T09:50:11.382Z,102510.72
2022-12-17T09:53:01.851Z,102466.91
2022-12-17T09:56:10.171Z,102505.69
2022-12-17T09:59:00.277Z,102519.47
2022-12-17T10:01:50.571Z,102520.28
2022-12-17T10:04:48.244Z,102528.53
2022-12-17T10:07:39.212Z,102476.56
2022-12-17T10:10:38.361Z,102484.16
2022-12-17T10:13:46.607Z,102474.47
2022-12-17T10:17:04.791Z,102509.41
2022-12-17T10:19:58.613Z,102531.59
2022-12-17T10:22:44.028Z,102511.84
2022-12-17T10:25:37.186Z,102464.09
2022-12-17T10:28:30.592Z,102531.69
2022-12-17T10:31:16.664Z,102523.44
2022-12-17T10:34:01.894Z,102531.66
2022-12-17T10:36:48.354Z,102524.13
2022-12-17T10:39:40.996Z,102526.59
2022-12-17T10:42:46.911Z,102527.88
2022-12-17T10:45:50.296Z,102502.59
2022-12-17T10:49:11.198Z,102537.16
2022-12-17T10:51:57.033Z,102526.00
2022-12-17T10:54:49.577Z,102489.22
2022-12-17T10:57:54.917Z,102535.97
2022-12-17T11:00:44.362Z,102531.19
2022-12-17T11:03:51.458Z,102531.28
2022-12-17T11:06:48.962Z,102535.63
2022-12-17T11:10:07.010Z,102485.09
2022-12-17T11:13:09.804Z,102473.91
2022-12-17T11:16:13.170Z,102500.31
2022-12-17T11:18:58.034Z,102537.06
2022-12-17T11:22:10.149Z,102521.84
2022-12-17T11:25:09.252Z,102516.56
2022-12-17T11:28:02.279Z,102514.84
2022-12-17T11:30:47.719Z,102498.53
2022-12-17T11:33:48.494Z,102509.06
2022-12-17T11:36:45.988Z,102485.00
2022-12-17T11:39:40.115Z,102521.94
2022-12-17T11:42:43.525Z,102507.13
2022-12-17T11:45:45.164Z,102520.31
2022-12-17T11:48:54.067Z,102523.66
2022-12-17T11:51:53.412Z,102509.06
2022-12-17T11:54:54.457Z,102539.84
2022-12-17T11:57:53.079Z,102470.13
2022-12-17T12:00:41.159Z,102505.97
2022-12-17T12:04:11.527Z,102540.28
2022-12-17T12:07:26.230Z,102542.25
2022-12-17T12:10:23.055Z,102539.53
2022-12-17T12:13:48.709Z,102537.44
2022-12-17T12:16:44.038Z,102532.78
2022-12-17T12:19:49.115Z,102494.09
2022-12-17T12:22:52.837Z,102539.28
2022-12-17T12:26:26.373Z,102518.13
2022-12-17T12:29:22.035Z,102546.19
2022-12-17T12:32:25.674Z,102544.13
2022-12-17T12:35:12.910Z,102495.31
2022-12-17T12:37:58.288Z,102482.44
2022-12-17T12:40:51.300Z,102524.25
2022-12-17T12:43:50.005Z,102522.63
2022-12-17T12:46:57.105Z,102543.88
2022-12-17T12:50:10.145Z,102487.81
2022-12-17T12:52:56.178Z,102550.00
2022-12-17T12:55:41.512Z,102401.16
2022-12-17T12:58:42.025Z,102556.59
2022-12-17T13:01:27.737Z,102555.97
2022-12-17T13:04:20.128Z,102552.75
2022-12-17T13:06:57.159Z,102556.19
2022-12-17T13:09:35.108Z,102554.47
2022-12-17T13:12:04.695Z,102553.53
2022-12-17T13:14:50.155Z,102559.06
2022-12-17T13:17:16.886Z,102558.78
2022-12-17T13:20:00.691Z,102541.00
2022-12-17T13:22:27.110Z,102549.59
2022-12-17T13:24:56.979Z,102554.25
2022-12-17T13:27:35.900Z,102552.63
2022-12-17T13:30:17.738Z,102552.97
2022-12-17T13:33:08.551Z,102551.56
2022-12-17T13:35:45.077Z,102554.28
2022-12-17T13:38:31.643Z,102495.19
2022-12-17T13:41:13.426Z,102532.53
2022-12-17T13:43:49.804Z,102564.03
2022-12-17T13:46:34.893Z,102555.34
2022-12-17T13:49:06.037Z,102541.31
2022-12-17T13:51:34.902Z,102564.47
2022-12-17T13:54:04.231Z,102564.59
2022-12-17T13:56:33.970Z,102569.56
2022-12-17T13:59:09.236Z,102515.94
2022-12-17T14:01:45.672Z,102539.06
2022-12-17T14:04:21.064Z,102570.44
2022-12-17T14:06:48.413Z,102571.22
2022-12-17T14:09:20.010Z,102541.91
2022-12-17T14:12:06.154Z,102531.38
2022-12-17T14:14:36.617Z,102600.22
2022-12-17T14:17:03.417Z,102526.63
2022-12-17T14:19:32.134Z,102484.97
2022-12-17T14:21:59.533Z,102585.09
2022-12-17T14:24:29.439Z,102589.66
2022-12-17T14:26:59.115Z,102603.16
2022-12-17T14:29:31.407Z,102585.50
2022-12-17T14:32:01.454Z,102603.13
2022-12-17T14:34:29.983Z,102599.81
2022-12-17T14:36:59.369Z,102614.38
2022-12-17T14:39:34.677Z,102563.84
2022-12-17T14:42:32.555Z,102539.09
2022-12-17T14:45:01.966Z,102580.63
2022-12-17T14:47:35.515Z,102609.81
2022-12-17T14:50:05.189Z,102607.41
2022-12-17T14:52:44.752Z,102612.06
2022-12-17T14:55:25.420Z,102613.97
2022-12-17T14:57:52.987Z,102605.41
2022-12-17T15:00:20.207Z,102609.91
2022-12-17T15:02:54.560Z,102609.19
2022-12-17T15:05:21.333Z,102615.53
2022-12-17T15:07:48.061Z,102619.94
2022-12-17T15:10:19.701Z,102622.59
2022-12-17T15:12:46.565Z,102520.88
2022-12-17T15:15:16.357Z,102622.72
2022-12-17T15:17:43.201Z,102625.38
2022-12-17T15:20:17.004Z,102621.13
2022-12-17T15:22:43.608Z,102626.44
2022-12-17T15:25:13.529Z,102625.66
2022-12-17T15:27:40.079Z,102596.63
2022-12-17T15:30:07.665Z,102611.72
2022-12-17T15:32:34.601Z,102544.06
2022-12-17T15:35:01.112Z,102599.50
2022-12-17T15:37:27.582Z,102628.59
2022-12-17T15:39:54.149Z,102603.06
2022-12-17T15:42:39.293Z,102631.28
2022-12-17T15:45:06.322Z,102605.75
2022-12-17T15:47:32.789Z,102526.81
2022-12-17T15:49:59.318Z,102617.19
2022-12-17T15:52:25.883Z,102623.38
2022-12-17T15:54:52.909Z,102634.00
2022-12-17T15:57:19.416Z,102586.56
2022-12-17T15:59:45.963Z,102578.69
2022-12-17T16:02:13.272Z,102648.16
2022-12-17T16:04:40.945Z,102642.91
2022-12-17T16:07:07.491Z,102573.50
2022-12-17T16:09:34.015Z,102604.16
2022-12-17T16:12:00.551Z,102652.50
2022-12-17T16:14:27.093Z,102636.72
2022-12-17T16:16:53.565Z,102638.59
2022-12-17T16:19:23.043Z,102653.53
2022-12-17T16:21:49.534Z,102646.59
2022-12-17T16:24:16.160Z,102661.53
2022-12-17T16:26:42.794Z,102605.31
2022-12-17T16:29:09.469Z,102656.28
2022-12-17T16:31:36.060Z,102639.66
2022-12-17T16:34:02.914Z,102611.50
2022-12-17T16:36:29.537Z,102595.75
2022-12-17T16:38:55.978Z,102658.16
2022-12-17T16:41:23.066Z,102579.91
2022-12-17T16:43:49.999Z,102670.47
2022-12-17T16:46:27.365Z,102670.47
2022-12-17T16:48:55.224Z,102650.28
2022-12-17T16:51:28.585Z,102666.97
2022-12-17T16:53:56.970Z,102673.13
2022-12-17T16:56:27.852Z,102667.88
2022-12-17T16:58:55.539Z,102664.34
2022-12-17T17:01:25.198Z,102637.09
2022-12-17T17:03:51.952Z,102657.34
2022-12-17T17:06:19.403Z,102628.34
2022-12-17T17:08:46.778Z,102663.50
2022-12-17T17:11:17.962Z,102632.78
2022-12-17T17:13:45.102Z,102652.97
2022-12-17T17:16:12.102Z,102686.41
2022-12-17T17:18:39.613Z,102675.88
2022-12-17T17:21:35.916Z,102681.16
2022-12-17T17:24:07.226Z,102692.59
2022-12-17T17:26:34.995Z,102699.66
2022-12-17T17:29:02.172Z,102640.69
2022-12-17T17:31:53.467Z,102652.16
2022-12-17T17:34:15.800Z,102694.38
2022-12-17T17:36:43.075Z,102660.94
2022-12-17T17:39:09.705Z,102703.19
2022-12-17T17:41:37.070Z,102640.72
2022-12-17T17:44:09.222Z,102668.00
2022-12-17T17:46:36.396Z,102711.97
2022-12-17T17:49:06.286Z,102713.75
2022-12-17T17:52:07.782Z,102711.97
2022-12-17T17:54:22.659Z,102718.16
2022-12-17T17:56:49.248Z,102719.03
2022-12-17T17:59:20.272Z,102702.31
2022-12-17T18:01:49.745Z,102717.25
2022-12-17T18:04:19.609Z,102716.38
2022-12-17T18:07:15.982Z,102730.47
2022-12-17T18:09:33.774Z,102732.22
2022-12-17T18:12:20.376Z,102521.00
2022-12-17T18:15:12.771Z,102732.22
2022-12-17T18:17:33.284Z,102735.72
2022-12-17T18:19:59.756Z,102713.75
2022-12-17T18:22:26.361Z,102700.53
2022-12-17T18:24:52.822Z,102745.41
2022-12-17T18:27:19.417Z,102674.97
2022-12-17T18:29:48.253Z,102687.25
2022-12-17T18:32:14.826Z,102733.06
2022-12-17T18:34:43.058Z,102745.41
2022-12-17T18:37:09.552Z,102745.41
2022-12-17T18:39:36.156Z,102723.38
2022-12-17T18:42:21.330Z,102749.78
2022-12-17T18:44:47.772Z,102729.56
2022-12-17T18:47:14.484Z,102759.47
2022-12-17T18:49:41.074Z,102675.81
2022-12-17T18:52:11.715Z,102736.50
2022-12-17T18:54:41.380Z,102777.06
2022-12-17T18:57:07.860Z,102730.38
2022-12-17T18:59:34.730Z,102719.78
2022-12-17T19:02:01.834Z,102747.94
2022-12-17T19:04:28.469Z,102777.91
2022-12-17T19:06:55.428Z,102773.50
2022-12-17T19:09:23.815Z,102776.97
2022-12-17T19:11:51.715Z,102772.59
2022-12-17T19:14:18.581Z,102774.34
2022-12-17T19:16:45.435Z,102711.78
2022-12-17T19:19:12.884Z,102773.44
2022-12-17T19:21:39.761Z,102782.25
2022-12-17T19:24:08.717Z,102786.66
2022-12-17T19:26:35.529Z,102744.34
2022-12-17T19:29:02.537Z,102801.59
2022-12-17T19:31:31.525Z,102789.22
2022-12-17T19:34:00.323Z,102678.16
2022-12-17T19:36:32.525Z,102756.53
2022-12-17T19:39:01.410Z,102802.41
2022-12-17T19:41:29.690Z,102779.47
2022-12-17T19:43:59.056Z,102775.09
2022-12-17T19:46:26.788Z,102812.97
2022-12-17T19:48:57.388Z,102808.53
2022-12-17T19:51:25.564Z,102775.09
2022-12-17T19:53:52.015Z,102805.94
2022-12-17T19:56:30.452Z,102800.69
2022-12-17T19:59:02.213Z,102798.03
2022-12-17T20:01:34.090Z,102801.56
2022-12-17T20:04:00.896Z,102805.03
2022-12-17T20:06:30.635Z,102797.94
2022-12-17T20:09:01.835Z,102797.91
2022-12-17T20:11:34.939Z,102810.28
2022-12-17T20:14:13.215Z,102816.38
2022-12-17T20:16:42.902Z,102774.94
2022-12-17T20:19:13.801Z,102736.09
2022-12-17T20:21:40.671Z,102808.44
2022-12-17T20:24:08.044Z,102811.03
2022-12-17T20:26:34.581Z,102748.47
2022-12-17T20:29:01.392Z,102789.03
2022-12-17T20:31:28.466Z,102818.03
2022-12-17T20:33:55.114Z,102816.28
2022-12-17T20:36:23.285Z,102811.00
2022-12-17T20:38:49.990Z,102814.50
2022-12-17T20:41:19.313Z,102821.53
2022-12-17T20:43:46.549Z,102829.41
2022-12-17T20:46:13.925Z,102813.47
2022-12-17T20:48:42.986Z,102834.66
2022-12-17T20:51:17.014Z,102836.38
2022-12-17T20:53:44.880Z,102837.31
2022-12-17T20:56:14.459Z,102774.69
2022-12-17T20:58:42.928Z,102766.69
2022-12-17T21:01:19.107Z,102830.22
2022-12-17T21:03:47.012Z,102833.72
2022-12-17T21:06:19.078Z,102840.75
2022-12-17T21:08:50.233Z,102832.03
2022-12-17T21:11:23.500Z,102828.50
2022-12-17T21:13:50.524Z,102813.44
2022-12-17T21:16:22.737Z,102832.81
2022-12-17T21:18:52.841Z,102838.09
2022-12-17T21:21:21.690Z,102805.31
2022-12-17T21:23:49.315Z,102847.63
2022-12-17T21:26:27.913Z,102843.25
2022-12-17T21:28:59.571Z,102803.38
2022-12-17T21:31:41.078Z,102826.34
2022-12-17T21:34:12.535Z,102858.13
2022-12-17T21:36:39.959Z,102828.16
2022-12-17T21:39:09.379Z,102856.38
2022-12-17T21:41:38.494Z,102861.63
2022-12-17T21:44:07.884Z,102870.34
2022-12-17T21:46:35.264Z,102875.66
2022-12-17T21:49:03.180Z,102789.19
2022-12-17T21:51:31.193Z,102877.47
2022-12-17T21:54:00.301Z,102849.16
2022-12-17T21:56:27.390Z,102874.78
2022-12-17T21:58:59.933Z,102869.44
2022-12-17T22:01:32.138Z,102868.56
2022-12-17T22:04:01.950Z,102847.28
2022-12-17T22:06:35.066Z,102878.09
2022-12-17T22:09:30.403Z,102863.91
2022-12-17T22:12:19.929Z,102848.94
2022-12-17T22:14:46.774Z,102879.88
2022-12-17T22:17:13.381Z,102872.94
2022-12-17T22:19:40.026Z,102871.88
2022-12-17T22:22:06.511Z,102876.38
2022-12-17T22:24:35.962Z,102886.03
2022-12-17T22:27:03.358Z,102885.06
2022-12-17T22:29:48.466Z,102881.56
2022-12-17T22:32:33.474Z,102870.16
2022-12-17T22:36:05.590Z,102877.16
2022-12-17T22:41:04.164Z,102836.59
2022-12-17T22:44:32.049Z,102871.97
2022-12-17T22:44:51.547Z,102878.91
2022-12-17T22:46:18.391Z,102855.91
2022-12-17T22:48:45.079Z,102885.00
2022-12-17T22:51:15.245Z,102854.16
2022-12-17T22:53:44.972Z,102878.06
2022-12-17T22:56:21.031Z,102862.22
2022-12-17T22:58:59.442Z,102890.28
2022-12-17T23:01:26.695Z,102874.41
2022-12-17T23:03:57.926Z,102857.59
2022-12-17T23:06:24.950Z,102877.97
2022-12-17T23:08:51.844Z,102878.00
2022-12-17T23:11:21.199Z,102876.31
2022-12-17T23:13:47.761Z,102858.66
2022-12-17T23:16:14.906Z,102877.16
2022-12-17T23:18:42.957Z,102837.38
2022-12-17T23:21:12.352Z,102870.91
2022-12-17T23:23:39.724Z,102875.31
2022-12-17T23:26:12.750Z,102879.72
2022-12-17T23:28:39.522Z,102841.69
2022-12-17T23:31:12.299Z,102887.44
2022-12-17T23:33:39.727Z,102883.63
2022-12-17T23:36:12.399Z,102881.19
2022-12-17T23:38:41.020Z,102894.41
2022-12-17T23:41:13.830Z,102880.31
2022-12-17T23:43:40.721Z,102875.88
2022-12-17T23:46:08.637Z,102891.81
2022-12-17T23:48:45.298Z,102884.66
2022-12-17T23:51:14.168Z,102827.28
2022-12-17T23:53:41.781Z,102889.81
2022-12-17T23:56:12.339Z,102883.47
2022-12-17T23:58:40.416Z,102867.34
